Terminal Aerodrome Forecast
Issued by NWS

Home | Current Version | Previous Version | Text Only | Print | Product List | Glossary Off
Versions: 1 2 3 4 5 6 7 8 9 10 11 12 13 14 15 16 17 18 19 20

000
FTUS43 KIWX 221730
TAFSBN
TAF
KSBN 221730Z 2218/2318 20011KT 6SM BR BKN015
     FM230400 22012KT 4SM BR OVC015
     FM231000 27010KT 2SM BR OVC008
     FM231400 32006KT 3SM BR BKN015=

USA.gov is the U.S. government's official web portal to all federal, state and local government web resources and services.